Time;durP1;ratioP1;P1;durP2;ratioP2;P2;SDS_P1;SDS_P2;PMS_P1;PMS_P2;Temp;Humidity;BMP_temperature;BMP_pressure;BME280_temperature;BME280_humidity;BME280_pressure;Samples;Min_cycle;Max_cycle;Signal;HPM_P1;HPM_P2
2023/12/31 00:00:27;;;;;;;10.07;2.20;;;11.80;99.90;;;;;;6268267;28;20603;-82
2023/12/31 00:03:28;;;;;;;11.57;2.17;;;11.80;99.90;;;;;;6247258;28;20088;-82
2023/12/31 00:06:30;;;;;;;9.27;2.05;;;11.80;99.90;;;;;;6244686;28;20616;-81
2023/12/31 00:09:32;;;;;;;7.75;2.20;;;11.70;99.90;;;;;;6272035;28;20519;-81
2023/12/31 00:12:33;;;;;;;10.32;2.53;;;11.70;99.90;;;;;;6246520;28;20057;-82
2023/12/31 00:15:35;;;;;;;8.90;2.20;;;11.70;99.90;;;;;;6251280;28;20050;-83
2023/12/31 00:18:37;;;;;;;9.95;1.80;;;11.80;99.90;;;;;;6268082;28;20060;-83
2023/12/31 00:21:38;;;;;;;9.43;2.30;;;11.80;99.90;;;;;;6243308;28;20054;-82
2023/12/31 00:24:40;;;;;;;10.25;2.70;;;11.90;99.90;;;;;;6264075;28;20052;-81
2023/12/31 00:27:42;;;;;;;10.02;2.08;;;12.00;99.90;;;;;;6266850;28;20412;-81
2023/12/31 00:30:43;;;;;;;12.10;2.50;;;12.00;99.90;;;;;;6247816;28;20048;-81
2023/12/31 00:33:45;;;;;;;13.60;2.15;;;11.90;99.90;;;;;;6258607;28;20132;-83
2023/12/31 00:36:47;;;;;;;11.80;2.33;;;11.80;99.90;;;;;;6268232;28;20412;-85
2023/12/31 00:39:49;;;;;;;12.35;2.42;;;11.50;99.90;;;;;;6249102;28;20057;-85
2023/12/31 00:42:50;;;;;;;13.20;2.60;;;11.30;99.90;;;;;;6290759;28;20087;-84
2023/12/31 00:45:52;;;;;;;11.48;2.58;;;11.10;99.90;;;;;;6267342;28;20531;-82
2023/12/31 00:48:53;;;;;;;12.65;2.83;;;10.90;99.90;;;;;;6281167;28;20052;-82
2023/12/31 00:51:55;;;;;;;10.65;1.65;;;10.70;99.90;;;;;;6266335;28;20044;-84
2023/12/31 00:54:57;;;;;;;5.05;1.00;;;10.50;99.90;;;;;;6252460;28;20065;-88
2023/12/31 00:57:59;;;;;;;3.10;0.73;;;10.10;99.90;;;;;;6277000;28;20446;-84
2023/12/31 01:01:00;;;;;;;2.20;0.70;;;9.70;99.90;;;;;;6272618;28;20064;-82
2023/12/31 01:04:02;;;;;;;1.75;0.60;;;9.30;99.90;;;;;;6256707;28;20056;-85
2023/12/31 01:07:03;;;;;;;2.53;0.63;;;9.00;99.90;;;;;;6299767;28;20064;-84
2023/12/31 01:10:05;;;;;;;3.03;0.70;;;8.80;99.90;;;;;;6268150;28;20075;-84
2023/12/31 01:13:07;;;;;;;1.73;0.60;;;8.60;99.90;;;;;;6259349;28;20080;-85
2023/12/31 01:16:08;;;;;;;4.03;0.75;;;8.40;99.90;;;;;;6278451;28;20063;-83
2023/12/31 01:19:10;;;;;;;3.17;0.50;;;8.30;99.90;;;;;;6272840;28;20053;-84
2023/12/31 01:22:12;;;;;;;3.00;0.50;;;8.30;99.90;;;;;;6280007;28;20492;-83
2023/12/31 01:25:13;;;;;;;4.38;0.75;;;8.20;99.90;;;;;;6272124;28;20086;-83
2023/12/31 01:28:15;;;;;;;4.13;0.70;;;8.20;99.90;;;;;;6274141;28;20064;-83
2023/12/31 01:31:17;;;;;;;4.25;0.70;;;8.10;99.90;;;;;;6272280;28;20059;-82
2023/12/31 01:34:18;;;;;;;3.70;0.80;;;8.10;99.90;;;;;;6271624;28;20133;-80
2023/12/31 01:37:20;;;;;;;4.55;1.00;;;8.00;99.90;;;;;;6277866;28;20052;-81
2023/12/31 01:40:22;;;;;;;5.20;0.75;;;7.90;99.90;;;;;;6278276;28;20049;-79
2023/12/31 01:43:23;;;;;;;5.75;0.70;;;8.00;99.90;;;;;;6253733;28;20494;-82
2023/12/31 01:46:25;;;;;;;6.10;0.90;;;7.90;99.90;;;;;;6278405;28;20458;-79
2023/12/31 01:49:30;;;;;;;2.60;0.60;;;8.00;99.90;;;;;;6270725;28;20457;-80
2023/12/31 01:52:31;;;;;;;4.35;1.00;;;7.90;99.90;;;;;;6253672;28;20137;-82
2023/12/31 01:55:33;;;;;;;6.40;1.05;;;7.90;99.90;;;;;;6295779;28;20718;-82
2023/12/31 01:58:35;;;;;;;3.75;0.82;;;7.90;99.90;;;;;;6276662;28;20054;-81
2023/12/31 02:01:36;;;;;;;7.65;1.25;;;8.00;99.90;;;;;;6278458;28;20481;-81
2023/12/31 02:04:39;;;;;;;4.60;1.13;;;8.00;99.90;;;;;;6294867;28;20176;-81
2023/12/31 02:07:40;;;;;;;9.68;1.30;;;8.00;99.90;;;;;;6270934;28;20185;-82
2023/12/31 02:10:42;;;;;;;7.10;1.08;;;8.00;99.90;;;;;;6254534;28;20059;-82
2023/12/31 02:13:44;;;;;;;5.57;0.90;;;8.10;99.90;;;;;;6276370;28;20369;-81
2023/12/31 02:16:46;;;;;;;4.68;1.33;;;8.10;99.90;;;;;;6271120;28;20698;-81
2023/12/31 02:19:48;;;;;;;8.20;1.17;;;8.10;99.90;;;;;;6276728;28;20214;-82
2023/12/31 02:22:50;;;;;;;7.75;1.40;;;8.10;99.90;;;;;;6271074;28;20425;-82
2023/12/31 02:25:51;;;;;;;7.40;1.05;;;8.10;99.90;;;;;;6252704;28;20056;-82
2023/12/31 02:28:53;;;;;;;6.35;1.10;;;8.10;99.90;;;;;;6266271;28;20139;-81
2023/12/31 02:31:55;;;;;;;10.18;1.00;;;8.10;99.90;;;;;;6294822;28;20060;-82
2023/12/31 02:34:56;;;;;;;4.40;1.00;;;8.10;99.90;;;;;;6252788;28;20053;-82
2023/12/31 02:37:58;;;;;;;4.78;1.13;;;8.20;99.90;;;;;;6276431;28;20060;-81
2023/12/31 02:41:00;;;;;;;5.82;1.08;;;8.20;99.90;;;;;;6252979;28;20690;-81
2023/12/31 02:44:01;;;;;;;7.03;1.13;;;8.20;99.90;;;;;;6260305;28;20064;-82
2023/12/31 02:47:03;;;;;;;7.53;1.02;;;8.30;99.90;;;;;;6252755;28;20053;-81
2023/12/31 02:50:04;;;;;;;5.85;1.42;;;8.20;99.90;;;;;;6276152;28;20052;-81
2023/12/31 02:53:06;;;;;;;5.35;0.70;;;8.20;99.90;;;;;;6252621;28;20076;-82
2023/12/31 02:56:08;;;;;;;7.53;1.00;;;8.30;99.90;;;;;;6276327;28;20424;-81
2023/12/31 02:59:09;;;;;;;5.82;1.00;;;8.30;99.90;;;;;;6278490;28;20057;-81
2023/12/31 03:02:11;;;;;;;4.45;0.90;;;8.30;99.90;;;;;;6276232;28;20419;-82
2023/12/31 03:05:12;;;;;;;5.47;0.98;;;8.30;99.90;;;;;;6443868;22;20146;-82
2023/12/31 03:08:14;;;;;;;7.55;0.95;;;8.30;99.90;;;;;;6370476;27;20051;-83
2023/12/31 03:11:16;;;;;;;11.80;1.73;;;8.30;99.90;;;;;;6370116;27;20050;-83
2023/12/31 03:14:17;;;;;;;7.35;1.02;;;8.30;99.90;;;;;;6337167;27;20059;-84
2023/12/31 03:17:19;;;;;;;7.22;0.95;;;8.30;99.90;;;;;;6348356;27;20051;-83
2023/12/31 03:20:21;;;;;;;6.00;1.02;;;8.30;99.90;;;;;;6348201;27;20047;-84
2023/12/31 03:23:23;;;;;;;6.13;1.05;;;8.30;99.90;;;;;;6349393;27;20088;-87
2023/12/31 03:26:25;;;;;;;4.47;0.90;;;8.40;99.90;;;;;;6333187;28;20482;-83
2023/12/31 03:29:27;;;;;;;5.55;0.80;;;8.40;99.90;;;;;;6338898;27;20063;-83
2023/12/31 03:32:28;;;;;;;5.68;1.20;;;8.40;99.90;;;;;;6351605;27;20098;-83
2023/12/31 03:35:30;;;;;;;9.50;1.30;;;8.50;99.90;;;;;;6350201;27;20163;-84
2023/12/31 03:38:32;;;;;;;8.93;1.23;;;8.40;99.90;;;;;;6370139;27;20047;-84
2023/12/31 03:41:33;;;;;;;9.82;1.38;;;8.40;99.90;;;;;;6350823;27;20043;-83
2023/12/31 03:44:35;;;;;;;11.68;1.20;;;8.50;99.90;;;;;;6344036;27;20059;-83
2023/12/31 03:47:37;;;;;;;7.97;1.63;;;8.50;99.90;;;;;;6351245;27;20497;-84
2023/12/31 03:50:38;;;;;;;8.25;1.50;;;8.50;99.90;;;;;;6351077;27;20146;-83
2023/12/31 03:53:40;;;;;;;11.30;1.65;;;8.50;99.90;;;;;;6351101;27;20043;-83
2023/12/31 03:56:42;;;;;;;6.28;1.38;;;8.50;99.90;;;;;;6360511;27;20421;-84
2023/12/31 03:59:44;;;;;;;13.18;1.73;;;8.60;99.90;;;;;;6366918;27;20047;-84
2023/12/31 04:02:45;;;;;;;9.38;1.55;;;8.50;99.90;;;;;;6343917;27;20058;-83
2023/12/31 04:05:47;;;;;;;11.23;1.58;;;8.50;99.90;;;;;;6351325;27;20051;-84
2023/12/31 04:08:49;;;;;;;16.38;2.13;;;8.50;99.90;;;;;;6344496;27;20395;-83
2023/12/31 04:11:50;;;;;;;11.35;1.70;;;8.60;99.90;;;;;;6344834;28;20051;-83
2023/12/31 04:14:52;;;;;;;9.05;1.50;;;8.60;99.90;;;;;;6341260;28;20426;-84
2023/12/31 04:17:54;;;;;;;9.30;1.70;;;8.60;99.90;;;;;;6326971;28;20085;-84
2023/12/31 04:20:56;;;;;;;10.80;1.75;;;8.60;99.90;;;;;;6351428;28;20055;-84
2023/12/31 04:23:57;;;;;;;12.40;1.75;;;8.60;99.90;;;;;;6369491;28;20059;-84
2023/12/31 04:26:59;;;;;;;11.15;1.60;;;8.50;99.90;;;;;;6367481;28;20120;-87
2023/12/31 04:30:00;;;;;;;13.65;2.03;;;8.60;99.90;;;;;;6356303;28;20132;-86
2023/12/31 04:33:02;;;;;;;16.25;2.30;;;8.50;99.90;;;;;;6352922;27;20043;-86
2023/12/31 04:36:04;;;;;;;12.10;1.70;;;8.50;99.90;;;;;;6357722;27;20074;-85
2023/12/31 04:39:05;;;;;;;13.43;1.92;;;8.40;99.90;;;;;;6332650;28;20051;-84
2023/12/31 04:42:07;;;;;;;13.52;1.98;;;8.40;99.90;;;;;;6373861;27;20067;-84
2023/12/31 04:45:09;;;;;;;13.32;1.70;;;8.40;99.90;;;;;;6344636;28;20070;-83
2023/12/31 04:48:11;;;;;;;7.32;1.30;;;8.30;99.90;;;;;;6370534;27;20513;-83
2023/12/31 04:51:13;;;;;;;12.52;1.42;;;8.40;99.90;;;;;;6351656;27;20046;-83
2023/12/31 04:54:14;;;;;;;10.43;1.67;;;8.40;99.90;;;;;;6347310;27;20058;-83
2023/12/31 04:57:16;;;;;;;11.38;1.60;;;8.40;99.90;;;;;;6330718;28;20059;-83
2023/12/31 05:00:18;;;;;;;9.27;1.48;;;8.30;99.90;;;;;;6370874;27;20051;-83
2023/12/31 05:03:19;;;;;;;12.10;2.15;;;8.30;99.90;;;;;;6352710;27;20688;-85
2023/12/31 05:06:21;;;;;;;14.80;1.95;;;8.40;99.90;;;;;;6354326;27;20058;-84
2023/12/31 05:09:23;;;;;;;12.93;1.60;;;8.30;99.90;;;;;;6353810;27;20062;-84
2023/12/31 05:12:25;;;;;;;13.02;1.65;;;8.30;99.90;;;;;;6353402;27;20055;-82
2023/12/31 05:15:26;;;;;;;8.82;1.33;;;8.30;99.90;;;;;;6349247;27;20412;-83
2023/12/31 05:18:28;;;;;;;10.60;1.50;;;8.30;99.90;;;;;;6352547;27;20058;-84
2023/12/31 05:21:30;;;;;;;12.30;1.58;;;8.30;99.90;;;;;;6355165;27;20051;-83
2023/12/31 05:24:31;;;;;;;7.93;1.10;;;8.20;99.90;;;;;;6354228;27;20046;-83
2023/12/31 05:27:33;;;;;;;10.25;1.40;;;8.20;99.90;;;;;;6329920;28;20520;-83
2023/12/31 05:30:34;;;;;;;8.57;1.13;;;8.20;99.90;;;;;;6351633;27;20163;-84
2023/12/31 05:33:36;;;;;;;9.10;1.00;;;8.10;99.90;;;;;;6373199;27;20055;-84
2023/12/31 05:36:39;;;;;;;5.75;0.88;;;8.10;99.90;;;;;;6334213;27;20062;-85
2023/12/31 05:39:41;;;;;;;6.43;0.82;;;8.00;99.90;;;;;;6355380;27;20095;-85
2023/12/31 05:42:42;;;;;;;4.28;0.80;;;8.00;99.90;;;;;;6345882;27;20055;-83
2023/12/31 05:45:44;;;;;;;3.72;0.80;;;7.90;99.90;;;;;;6344168;27;20047;-83
2023/12/31 05:48:45;;;;;;;2.70;0.50;;;7.90;99.90;;;;;;6347402;27;20090;-82
2023/12/31 05:51:47;;;;;;;3.28;0.60;;;7.80;99.90;;;;;;6365175;27;20077;-83
2023/12/31 05:54:49;;;;;;;2.85;0.50;;;7.70;99.90;;;;;;6373027;27;20137;-84
2023/12/31 05:57:51;;;;;;;1.08;0.40;;;7.60;99.90;;;;;;6341187;27;20047;-84
2023/12/31 06:00:53;;;;;;;2.67;0.40;;;7.60;99.90;;;;;;6354147;27;20062;-84
2023/12/31 06:03:56;;;;;;;1.88;0.40;;;7.40;99.90;;;;;;6329630;28;20505;-83
2023/12/31 06:06:57;;;;;;;2.53;0.50;;;7.40;99.90;;;;;;6323349;28;20586;-83
2023/12/31 06:09:59;;;;;;;4.50;0.60;;;7.30;99.90;;;;;;6323198;28;20055;-84
2023/12/31 06:13:01;;;;;;;2.55;0.40;;;7.20;99.90;;;;;;6341438;28;20063;-83
2023/12/31 06:16:03;;;;;;;2.25;0.40;;;7.20;99.90;;;;;;6319215;28;20051;-83
2023/12/31 06:19:05;;;;;;;2.63;0.52;;;7.10;99.90;;;;;;6316516;28;20051;-83
2023/12/31 06:22:06;;;;;;;1.48;0.50;;;7.00;99.90;;;;;;6340339;28;20077;-82
2023/12/31 06:25:08;;;;;;;1.33;0.40;;;7.00;99.90;;;;;;6323499;27;20065;-83
2023/12/31 06:28:10;;;;;;;1.90;0.60;;;6.90;99.90;;;;;;6355223;27;20043;-82
2023/12/31 06:31:12;;;;;;;1.30;0.40;;;6.90;99.90;;;;;;6323324;28;20095;-82
2023/12/31 06:34:14;;;;;;;2.67;0.70;;;6.80;99.90;;;;;;6318148;28;20172;-83
2023/12/31 06:37:15;;;;;;;2.35;0.50;;;6.80;99.90;;;;;;6308466;28;20403;-83
2023/12/31 06:40:17;;;;;;;2.60;0.60;;;6.70;99.90;;;;;;6346100;28;20059;-84
2023/12/31 06:43:20;;;;;;;1.92;0.50;;;6.70;99.90;;;;;;6325500;28;20058;-84
2023/12/31 06:46:22;;;;;;;2.70;0.50;;;6.70;99.90;;;;;;6330763;28;20047;-85
2023/12/31 06:49:24;;;;;;;6.05;0.93;;;6.70;99.90;;;;;;6326336;28;20528;-84
2023/12/31 06:52:25;;;;;;;3.28;0.50;;;6.60;99.90;;;;;;6326986;28;20062;-83
2023/12/31 06:55:27;;;;;;;3.45;0.75;;;6.50;99.90;;;;;;6328202;28;20079;-84
2023/12/31 06:58:29;;;;;;;3.00;0.60;;;6.50;99.90;;;;;;6311644;27;20250;-84
2023/12/31 07:01:30;;;;;;;3.47;0.77;;;6.40;99.90;;;;;;6348621;27;20171;-83
2023/12/31 07:04:32;;;;;;;7.18;0.80;;;6.40;99.90;;;;;;6347340;27;20060;-83
2023/12/31 07:07:34;;;;;;;5.05;0.60;;;6.40;99.90;;;;;;6371436;27;20043;-83
2023/12/31 07:10:35;;;;;;;4.10;0.68;;;6.40;99.90;;;;;;6329006;28;20054;-84
2023/12/31 07:13:37;;;;;;;5.30;0.73;;;6.40;99.90;;;;;;6349073;27;20486;-86
2023/12/31 07:16:39;;;;;;;4.70;0.93;;;6.40;99.90;;;;;;6353984;27;20070;-84
2023/12/31 07:19:41;;;;;;;5.88;0.93;;;6.40;99.90;;;;;;6341608;28;20058;-83
2023/12/31 07:22:43;;;;;;;5.05;0.68;;;6.40;99.90;;;;;;6351983;27;20051;-83
2023/12/31 07:25:45;;;;;;;5.28;0.90;;;6.40;99.90;;;;;;6341926;28;20406;-83
2023/12/31 07:28:47;;;;;;;6.18;0.82;;;6.40;99.90;;;;;;6359174;27;20505;-83
2023/12/31 07:31:48;;;;;;;5.18;0.88;;;6.30;99.90;;;;;;6343783;28;20055;-84
2023/12/31 07:34:50;;;;;;;3.22;0.68;;;6.40;99.90;;;;;;6343614;28;20157;-83
2023/12/31 07:37:52;;;;;;;11.40;1.25;;;6.40;99.90;;;;;;6393420;27;20422;-83
2023/12/31 07:40:54;;;;;;;5.93;0.88;;;6.40;99.90;;;;;;6327730;27;20040;-82
2023/12/31 07:43:55;;;;;;;5.53;0.73;;;6.40;99.90;;;;;;6367081;27;20107;-83
2023/12/31 07:46:57;;;;;;;5.85;0.60;;;6.40;99.90;;;;;;6353286;27;20043;-83
2023/12/31 07:49:59;;;;;;;4.43;0.95;;;6.40;99.90;;;;;;6342880;28;20422;-84
2023/12/31 07:53:00;;;;;;;8.93;0.88;;;6.40;99.90;;;;;;6343300;28;20051;-83
2023/12/31 07:56:02;;;;;;;7.70;1.02;;;6.40;99.90;;;;;;6376222;27;20051;-83
2023/12/31 07:59:05;;;;;;;6.38;1.17;;;6.30;99.90;;;;;;6354744;27;20075;-83
2023/12/31 08:02:07;;;;;;;4.90;0.93;;;6.30;99.90;;;;;;6369493;27;20143;-82
2023/12/31 08:05:09;;;;;;;7.13;1.02;;;6.20;99.90;;;;;;6326146;28;20055;-83
2023/12/31 08:08:12;;;;;;;8.45;1.55;;;6.40;99.90;;;;;;6367773;27;20070;-82
2023/12/31 08:11:13;;;;;;;5.75;0.80;;;6.40;99.90;;;;;;6326206;28;20055;-84
2023/12/31 08:14:15;;;;;;;9.15;1.35;;;6.50;99.90;;;;;;6340458;28;20138;-82
2023/12/31 08:17:17;;;;;;;5.28;1.17;;;6.50;99.90;;;;;;6352097;27;20120;-83
2023/12/31 08:20:18;;;;;;;10.02;1.30;;;6.50;99.90;;;;;;6350497;28;20122;-82
2023/12/31 08:23:20;;;;;;;15.70;1.60;;;6.60;99.90;;;;;;6343291;28;20051;-83
2023/12/31 08:26:22;;;;;;;10.10;1.52;;;6.70;99.90;;;;;;6340558;28;20490;-83
2023/12/31 08:29:23;;;;;;;15.63;2.10;;;6.80;99.90;;;;;;6338248;28;20185;-84
2023/12/31 08:32:26;;;;;;;13.90;1.80;;;6.90;99.90;;;;;;6342230;28;20058;-84
2023/12/31 08:35:28;;;;;;;15.57;1.85;;;6.90;99.90;;;;;;6342761;27;20138;-83
2023/12/31 08:38:30;;;;;;;15.98;2.13;;;7.00;99.90;;;;;;6359504;27;20048;-85
2023/12/31 08:41:32;;;;;;;13.45;2.00;;;7.00;99.90;;;;;;6345641;27;20047;-82
2023/12/31 08:44:33;;;;;;;10.65;1.75;;;7.00;99.90;;;;;;6366229;27;20513;-82
2023/12/31 08:47:41;;;;;;;13.20;1.95;;;7.10;99.90;;;;;;6326665;28;20514;-84
2023/12/31 08:50:42;;;;;;;17.55;2.20;;;7.10;99.90;;;;;;6349167;28;20058;-84
2023/12/31 08:53:44;;;;;;;16.58;2.88;;;7.10;99.90;;;;;;6344053;28;20550;-83
2023/12/31 08:56:45;;;;;;;13.40;1.95;;;7.20;99.90;;;;;;6369001;28;20069;-84
2023/12/31 08:59:51;;;;;;;17.83;2.53;;;7.30;99.90;;;;;;6340820;28;20534;-83
2023/12/31 09:02:52;;;;;;;12.80;2.05;;;7.30;99.90;;;;;;6362486;28;20074;-83
2023/12/31 09:05:54;;;;;;;18.98;2.65;;;7.40;99.90;;;;;;6342576;28;20048;-83
2023/12/31 09:08:56;;;;;;;16.23;2.22;;;7.40;99.90;;;;;;6346046;27;20057;-82
2023/12/31 09:11:58;;;;;;;10.55;1.60;;;7.50;99.90;;;;;;6325748;28;20070;-83
2023/12/31 09:15:00;;;;;;;14.13;2.28;;;7.60;99.90;;;;;;6351317;27;20050;-81
2023/12/31 09:18:01;;;;;;;17.40;2.33;;;7.70;99.90;;;;;;6325950;28;20051;-81
2023/12/31 09:21:03;;;;;;;17.67;2.80;;;7.70;99.90;;;;;;6343003;27;20055;-81
2023/12/31 09:24:05;;;;;;;11.48;1.80;;;7.80;99.90;;;;;;6329159;28;20056;-82
2023/12/31 09:27:09;;;;;;;15.05;2.30;;;8.00;99.90;;;;;;6370789;27;20095;-82
2023/12/31 09:30:11;;;;;;;17.30;2.38;;;8.30;99.90;;;;;;6358425;27;20050;-82
2023/12/31 09:33:12;;;;;;;10.43;1.83;;;8.40;99.90;;;;;;6348382;27;20051;-82
2023/12/31 09:36:14;;;;;;;13.18;2.35;;;8.40;99.90;;;;;;6371965;27;20051;-83
2023/12/31 09:39:17;;;;;;;14.27;2.40;;;8.40;99.90;;;;;;6380955;27;20052;-83
2023/12/31 09:42:18;;;;;;;11.77;2.17;;;8.50;99.90;;;;;;6345681;28;20051;-83
2023/12/31 09:45:21;;;;;;;13.40;2.55;;;8.60;99.90;;;;;;6371721;27;20043;-82
2023/12/31 09:48:23;;;;;;;15.98;2.08;;;9.00;99.90;;;;;;6328824;28;20145;-82
2023/12/31 09:51:24;;;;;;;14.55;2.45;;;9.10;99.90;;;;;;6376545;27;20053;-83
2023/12/31 09:54:26;;;;;;;14.40;1.95;;;8.90;99.90;;;;;;6330208;27;20093;-82
2023/12/31 09:57:28;;;;;;;19.38;2.60;;;8.70;99.90;;;;;;6353800;27;20054;-83
2023/12/31 10:00:29;;;;;;;14.95;2.22;;;8.50;99.90;;;;;;6352896;27;20395;-85
2023/12/31 10:03:31;;;;;;;13.50;2.10;;;8.30;99.90;;;;;;6354623;27;20054;-82
2023/12/31 10:06:33;;;;;;;16.77;2.33;;;8.20;99.90;;;;;;6367346;27;20098;-86
2023/12/31 10:09:34;;;;;;;14.15;2.50;;;8.00;99.90;;;;;;6355385;27;20058;-84
2023/12/31 10:12:36;;;;;;;16.88;2.50;;;8.00;99.90;;;;;;6372120;27;20047;-82
2023/12/31 10:15:38;;;;;;;16.23;2.65;;;7.90;99.90;;;;;;6386821;27;20046;-84
2023/12/31 10:18:39;;;;;;;13.73;2.85;;;7.80;99.90;;;;;;6372275;27;20124;-84
2023/12/31 10:21:41;;;;;;;16.02;2.10;;;7.80;99.90;;;;;;6345617;27;20055;-86
2023/12/31 10:24:43;;;;;;;15.95;2.30;;;7.80;99.90;;;;;;6352261;27;20051;-86
2023/12/31 10:27:47;;;;;;;18.83;2.60;;;7.80;99.90;;;;;;6354123;27;20068;-88
2023/12/31 10:30:49;;;;;;;20.95;2.95;;;7.80;99.90;;;;;;6343468;27;20059;-87
2023/12/31 10:33:51;;;;;;;15.05;2.67;;;7.90;99.90;;;;;;6350675;27;20052;-88
2023/12/31 10:36:53;;;;;;;15.02;2.00;;;8.60;99.90;;;;;;6377809;27;20050;-86
2023/12/31 10:39:55;;;;;;;12.10;2.25;;;9.30;99.90;;;;;;6360604;27;20054;-85
2023/12/31 10:42:57;;;;;;;14.70;2.53;;;9.40;99.90;;;;;;6384286;27;20050;-85
2023/12/31 10:45:58;;;;;;;13.82;2.50;;;9.10;99.90;;;;;;6352581;27;20097;-85
2023/12/31 10:49:00;;;;;;;16.83;2.50;;;8.80;99.90;;;;;;6341508;27;20070;-85
2023/12/31 10:52:02;;;;;;;12.45;2.10;;;8.60;99.90;;;;;;6369142;27;20047;-85
2023/12/31 10:55:04;;;;;;;16.27;2.90;;;8.40;99.90;;;;;;6349037;27;20055;-89
2023/12/31 10:58:06;;;;;;;14.27;2.35;;;8.30;99.90;;;;;;6371489;27;20047;-87
2023/12/31 11:01:08;;;;;;;11.40;2.22;;;8.40;99.90;;;;;;6355785;27;20057;-86
2023/12/31 11:04:10;;;;;;;14.40;2.45;;;8.70;99.90;;;;;;6372576;27;20065;-85
2023/12/31 11:07:11;;;;;;;12.48;2.22;;;8.80;99.90;;;;;;6352670;27;20421;-85
2023/12/31 11:10:13;;;;;;;11.60;1.92;;;9.00;99.90;;;;;;6370933;27;20059;-83
2023/12/31 11:13:15;;;;;;;14.90;2.20;;;9.10;99.90;;;;;;6356943;27;20057;-84
2023/12/31 11:16:17;;;;;;;13.95;2.40;;;9.30;99.90;;;;;;6375502;27;20630;-85
2023/12/31 11:19:18;;;;;;;11.45;2.35;;;9.00;99.90;;;;;;6349214;27;20456;-85
2023/12/31 11:22:20;;;;;;;12.85;2.33;;;8.90;99.90;;;;;;6351432;27;20892;-84
2023/12/31 11:25:22;;;;;;;18.35;3.30;;;8.80;99.90;;;;;;6346826;27;20055;-84
2023/12/31 11:28:23;;;;;;;14.73;2.38;;;8.70;99.90;;;;;;6349208;27;20199;-85
2023/12/31 11:31:25;;;;;;;15.13;2.40;;;8.70;99.90;;;;;;6351481;27;20057;-86
2023/12/31 11:34:27;;;;;;;12.95;2.22;;;8.60;99.90;;;;;;6349524;27;20051;-84
2023/12/31 11:37:28;;;;;;;14.43;2.33;;;8.60;99.90;;;;;;6343121;27;20047;-83
2023/12/31 11:40:30;;;;;;;10.10;1.83;;;8.60;99.90;;;;;;6342456;27;20063;-86
2023/12/31 11:46:52;;;;;;;11.80;2.30;;;8.60;99.90;;;;;;6362667;27;20631;-86
2023/12/31 11:49:54;;;;;;;10.95;1.98;;;8.70;99.90;;;;;;6363364;27;20082;-84
2023/12/31 11:52:56;;;;;;;7.78;1.50;;;8.70;99.90;;;;;;6369937;27;20086;-84
2023/12/31 11:55:58;;;;;;;9.00;1.42;;;8.80;99.90;;;;;;6339655;27;20088;-84
2023/12/31 11:58:59;;;;;;;6.30;1.45;;;9.00;99.90;;;;;;6357519;27;20052;-85
2023/12/31 12:02:01;;;;;;;8.45;1.50;;;9.00;99.90;;;;;;6369658;27;20058;-84
2023/12/31 12:05:03;;;;;;;8.48;1.42;;;9.00;99.90;;;;;;6340419;27;20054;-84
2023/12/31 12:08:07;;;;;;;9.15;1.77;;;9.00;99.90;;;;;;6346546;28;20046;-85
2023/12/31 12:11:09;;;;;;;6.45;1.20;;;9.10;99.90;;;;;;6346456;27;20055;-83
2023/12/31 12:14:11;;;;;;;9.88;1.30;;;9.30;99.90;;;;;;6349246;27;20059;-83
2023/12/31 12:17:12;;;;;;;7.15;1.50;;;9.50;99.90;;;;;;6346746;28;20047;-84
2023/12/31 12:20:14;;;;;;;5.55;1.27;;;10.30;99.90;;;;;;6347281;27;20384;-85
2023/12/31 12:23:16;;;;;;;6.38;1.00;;;11.10;99.90;;;;;;6346858;28;20051;-85
2023/12/31 12:26:17;;;;;;;7.20;1.25;;;11.40;99.90;;;;;;6347206;28;20405;-83
2023/12/31 12:29:20;;;;;;;6.75;0.88;;;11.10;99.90;;;;;;6366082;28;20055;-83
2023/12/31 12:32:22;;;;;;;9.55;1.23;;;10.70;99.90;;;;;;6347818;28;20148;-84
2023/12/31 12:35:23;;;;;;;6.30;1.50;;;10.40;99.90;;;;;;6348058;28;20054;-83
2023/12/31 12:38:25;;;;;;;9.40;1.40;;;10.10;99.90;;;;;;6368464;28;20151;-84
2023/12/31 12:41:28;;;;;;;9.00;1.83;;;9.90;99.90;;;;;;6345098;27;20143;-84
2023/12/31 12:44:29;;;;;;;12.95;2.45;;;9.80;99.90;;;;;;6345708;28;20055;-85
2023/12/31 12:47:31;;;;;;;13.13;2.25;;;9.90;99.90;;;;;;6348954;28;20047;-84
2023/12/31 12:50:33;;;;;;;13.35;2.45;;;10.30;99.90;;;;;;6349086;28;20055;-85
2023/12/31 12:53:35;;;;;;;10.60;2.50;;;10.60;99.90;;;;;;6352137;27;20133;-85
2023/12/31 12:56:36;;;;;;;12.77;2.13;;;10.80;99.90;;;;;;6356940;27;20746;-85
2023/12/31 12:59:38;;;;;;;10.50;2.40;;;10.70;99.90;;;;;;6365177;27;20050;-81
2023/12/31 13:02:40;;;;;;;13.32;2.00;;;10.80;99.90;;;;;;6371251;27;20586;-86
2023/12/31 13:05:41;;;;;;;11.55;2.30;;;10.80;99.90;;;;;;6346572;28;20112;-82
2023/12/31 13:08:43;;;;;;;13.80;2.50;;;10.90;99.90;;;;;;6373423;27;20511;-84
2023/12/31 13:11:44;;;;;;;14.50;2.50;;;11.20;96.90;;;;;;6348974;27;20060;-90
2023/12/31 13:14:46;;;;;;;15.65;2.53;;;11.00;94.60;;;;;;6354532;27;20048;-87
2023/12/31 13:17:48;;;;;;;14.50;2.45;;;11.00;98.10;;;;;;6363691;27;20051;-86
2023/12/31 13:20:50;;;;;;;16.85;2.50;;;11.30;93.70;;;;;;6348891;27;20427;-88
2023/12/31 13:23:52;;;;;;;10.60;1.88;;;11.90;95.30;;;;;;6350235;27;20047;-91
2023/12/31 13:26:54;;;;;;;13.32;2.35;;;12.30;85.80;;;;;;6374432;27;20043;-86
2023/12/31 13:29:56;;;;;;;10.48;1.92;;;12.00;86.00;;;;;;6360953;27;20180;-87
2023/12/31 13:32:57;;;;;;;9.77;1.77;;;11.80;78.30;;;;;;6347178;28;20142;-90
2023/12/31 13:35:59;;;;;;;12.95;1.75;;;11.40;80.70;;;;;;6350404;27;20053;-88
2023/12/31 13:39:02;;;;;;;14.10;2.40;;;11.00;91.90;;;;;;6354790;27;20705;-89
2023/12/31 13:42:04;;;;;;;19.30;2.90;;;10.90;93.00;;;;;;6369262;27;20051;-88
2023/12/31 13:45:06;;;;;;;16.98;3.08;;;10.80;93.30;;;;;;6340093;27;20057;-89
2023/12/31 13:48:08;;;;;;;18.58;3.95;;;10.70;94.40;;;;;;6402153;27;20052;-89
2023/12/31 13:51:10;;;;;;;15.25;3.13;;;10.60;95.50;;;;;;6383049;27;20042;-89
2023/12/31 13:54:12;;;;;;;18.98;3.03;;;10.50;97.30;;;;;;6376966;27;20043;-90
2023/12/31 13:57:13;;;;;;;19.75;3.28;;;10.50;95.60;;;;;;6369053;27;20042;-90
2023/12/31 14:00:15;;;;;;;18.88;3.72;;;10.60;97.10;;;;;;6381549;27;20055;-90
2023/12/31 14:03:17;;;;;;;14.55;3.10;;;10.60;96.50;;;;;;6329736;28;20684;-88
2023/12/31 14:06:19;;;;;;;18.42;3.30;;;10.60;94.50;;;;;;6356986;27;20048;-89
2023/12/31 14:09:22;;;;;;;24.55;3.38;;;10.50;96.30;;;;;;6352632;27;20545;-88
2023/12/31 14:12:26;;;;;;;17.10;2.97;;;10.50;94.10;;;;;;6355565;27;20085;-87
2023/12/31 14:15:31;;;;;;;19.48;3.30;;;10.60;92.60;;;;;;6347647;27;20052;-87
2023/12/31 14:18:33;;;;;;;15.55;3.13;;;10.70;90.80;;;;;;6346884;28;20054;-88
2023/12/31 14:21:35;;;;;;;17.20;3.20;;;10.70;92.60;;;;;;6346724;28;20482;-88
2023/12/31 14:24:37;;;;;;;17.65;3.40;;;10.60;91.50;;;;;;6340494;27;20043;-87
2023/12/31 14:27:39;;;;;;;19.88;3.63;;;10.50;91.40;;;;;;6346783;27;20048;-86
2023/12/31 14:30:42;;;;;;;21.63;3.08;;;10.50;89.70;;;;;;6359595;27;20414;-85
2023/12/31 14:33:44;;;;;;;16.58;2.85;;;10.50;90.40;;;;;;6358974;27;20431;-84
2023/12/31 14:36:54;;;;;;;15.18;2.63;;;10.50;89.60;;;;;;6340819;28;20130;-83
2023/12/31 14:39:55;;;;;;;18.38;2.85;;;10.40;85.00;;;;;;6355593;27;20079;-84
2023/12/31 14:42:57;;;;;;;18.58;2.97;;;10.40;91.30;;;;;;6342838;27;20055;-83
2023/12/31 14:45:59;;;;;;;23.55;3.67;;;10.40;81.20;;;;;;6358840;27;20533;-85
2023/12/31 14:49:02;;;;;;;17.33;3.35;;;10.40;88.80;;;;;;6351496;27;20055;-85
2023/12/31 14:52:04;;;;;;;16.92;2.95;;;10.30;87.80;;;;;;6344373;28;20051;-85
2023/12/31 14:55:06;;;;;;;19.00;3.13;;;10.40;90.30;;;;;;6370138;27;20074;-85
2023/12/31 14:58:07;;;;;;;19.38;3.40;;;10.30;92.10;;;;;;6366080;27;20079;-86
2023/12/31 15:01:09;;;;;;;22.77;3.53;;;10.20;93.40;;;;;;6344265;28;20047;-85
2023/12/31 15:04:11;;;;;;;17.13;3.50;;;10.20;95.50;;;;;;6329052;28;20497;-83
2023/12/31 15:07:13;;;;;;;16.38;3.20;;;10.20;95.60;;;;;;6369596;27;20047;-85
2023/12/31 15:10:15;;;;;;;17.17;3.17;;;10.20;94.50;;;;;;6342957;28;20169;-84
2023/12/31 15:13:16;;;;;;;18.02;3.10;;;10.30;96.90;;;;;;6345636;27;20467;-85
2023/12/31 15:16:18;;;;;;;21.58;3.47;;;10.20;96.00;;;;;;6351457;27;20055;-84
2023/12/31 15:19:20;;;;;;;23.55;3.83;;;10.10;96.00;;;;;;6326371;28;20047;-85
2023/12/31 15:22:21;;;;;;;21.83;3.47;;;10.10;96.40;;;;;;6325720;28;20055;-85
2023/12/31 15:25:23;;;;;;;18.10;3.00;;;10.10;97.70;;;;;;6350762;27;20387;-85
2023/12/31 15:28:25;;;;;;;19.73;4.07;;;10.10;98.10;;;;;;6325404;28;20478;-85
2023/12/31 15:31:27;;;;;;;19.08;3.47;;;10.00;99.50;;;;;;6326238;28;20056;-85
2023/12/31 15:34:28;;;;;;;13.10;2.78;;;9.90;98.90;;;;;;6344806;28;20240;-85
2023/12/31 15:37:30;;;;;;;16.80;3.22;;;9.90;98.00;;;;;;6342136;28;20608;-84
2023/12/31 15:40:32;;;;;;;15.80;2.78;;;9.80;97.00;;;;;;6342487;28;20575;-84
2023/12/31 15:43:34;;;;;;;16.10;2.95;;;9.80;96.80;;;;;;6349996;27;20047;-84
2023/12/31 15:46:36;;;;;;;15.27;3.00;;;9.70;95.90;;;;;;6350860;27;20054;-84
2023/12/31 15:49:37;;;;;;;11.73;2.75;;;9.60;95.00;;;;;;6342288;28;20052;-84